createdAt,value
2023-01-27T00:01:58.310Z,40.77
2023-01-27T00:04:25.426Z,42.57
2023-01-27T00:06:52.549Z,32.97
2023-01-27T00:09:19.700Z,35.43
2023-01-27T00:12:05.569Z,36.10
2023-01-27T00:14:32.699Z,35.33
2023-01-27T00:16:59.811Z,35.30
2023-01-27T00:19:27.047Z,34.73
2023-01-27T00:22:12.734Z,33.90
2023-01-27T00:24:39.860Z,34.30
2023-01-27T00:27:09.012Z,32.80
2023-01-27T00:29:36.678Z,28.57
2023-01-27T00:32:22.432Z,30.97
2023-01-27T00:34:49.575Z,31.63
2023-01-27T00:37:16.790Z,32.03
2023-01-27T00:39:43.948Z,33.07
2023-01-27T00:42:11.137Z,34.57
2023-01-27T00:44:38.272Z,39.73
2023-01-27T00:47:05.407Z,37.13
2023-01-27T00:49:32.552Z,35.37
2023-01-27T00:51:59.695Z,35.50
2023-01-27T00:54:26.802Z,31.43
2023-01-27T00:56:53.952Z,29.40
2023-01-27T00:59:22.467Z,28.10
2023-01-27T01:01:49.635Z,25.40
2023-01-27T01:04:16.824Z,24.77
2023-01-27T01:06:43.988Z,27.07
2023-01-27T01:09:11.126Z,26.70
2023-01-27T01:11:38.290Z,23.87
2023-01-27T01:14:05.422Z,25.03
2023-01-27T01:16:32.572Z,25.37
2023-01-27T01:18:59.769Z,25.23
2023-01-27T01:21:26.905Z,24.23
2023-01-27T01:23:54.108Z,24.40
2023-01-27T01:26:21.329Z,24.87
2023-01-27T01:28:48.491Z,24.17
2023-01-27T01:31:16.765Z,24.57
2023-01-27T01:33:43.952Z,23.93
2023-01-27T01:36:12.142Z,27.50
2023-01-27T01:38:39.272Z,32.17
2023-01-27T01:41:06.860Z,36.67
2023-01-27T01:43:35.084Z,38.07
2023-01-27T01:46:02.842Z,41.17
2023-01-27T01:48:31.784Z,40.53
2023-01-27T01:51:29.250Z,39.57
2023-01-27T01:54:01.506Z,44.50
2023-01-27T01:56:31.214Z,41.67
2023-01-27T01:58:58.545Z,38.77
2023-01-27T02:01:25.770Z,41.07
2023-01-27T02:03:54.547Z,44.40
2023-01-27T02:06:21.699Z,42.23
2023-01-27T02:08:48.905Z,44.17
2023-01-27T02:11:16.058Z,45.20
2023-01-27T02:13:43.190Z,44.07
2023-01-27T02:16:13.027Z,46.30
2023-01-27T02:18:43.191Z,47.40
2023-01-27T02:21:10.369Z,47.33
2023-01-27T02:23:40.561Z,45.33
2023-01-27T02:26:26.349Z,46.70
2023-01-27T02:28:57.364Z,49.77
2023-01-27T02:31:24.651Z,46.90
2023-01-27T02:33:51.828Z,44.07
2023-01-27T02:36:19.127Z,44.03
2023-01-27T02:38:46.315Z,43.30
2023-01-27T02:41:26.946Z,45.23
2023-01-27T02:43:54.111Z,44.40
2023-01-27T02:46:21.302Z,46.43
2023-01-27T02:48:48.559Z,46.53
2023-01-27T02:51:15.716Z,45.57
2023-01-27T02:53:42.906Z,44.83
2023-01-27T02:56:11.344Z,45.47
2023-01-27T02:58:38.525Z,44.00
2023-01-27T03:01:05.938Z,43.47
2023-01-27T03:03:33.133Z,46.37
2023-01-27T03:06:00.260Z,48.53
2023-01-27T03:08:27.392Z,42.00
2023-01-27T03:10:55.742Z,40.10
2023-01-27T03:13:23.731Z,50.80
2023-01-27T03:16:09.935Z,41.37
2023-01-27T03:18:37.164Z,41.30
2023-01-27T03:21:05.135Z,39.30
2023-01-27T03:23:35.539Z,38.90
2023-01-27T03:26:03.177Z,38.17
2023-01-27T03:28:30.295Z,37.73
2023-01-27T03:31:01.465Z,36.33
2023-01-27T03:33:28.820Z,36.80
2023-01-27T03:36:14.525Z,39.47
2023-01-27T03:39:00.216Z,35.93
2023-01-27T03:41:46.215Z,35.97
2023-01-27T03:44:32.151Z,34.37
2023-01-27T03:46:59.303Z,34.70
2023-01-27T03:49:26.425Z,36.53
2023-01-27T03:51:53.530Z,40.73
2023-01-27T03:54:20.693Z,38.70
2023-01-27T03:56:48.155Z,37.90
2023-01-27T03:59:15.397Z,38.07
2023-01-27T04:01:43.795Z,37.33
2023-01-27T04:04:30.048Z,36.17
2023-01-27T04:07:03.354Z,35.37
2023-01-27T04:09:34.403Z,36.10
2023-01-27T04:12:02.229Z,36.93
2023-01-27T04:14:32.356Z,37.93
2023-01-27T04:17:03.114Z,37.83
2023-01-27T04:19:30.238Z,37.63
2023-01-27T04:21:57.555Z,38.77
2023-01-27T04:24:24.916Z,39.20
2023-01-27T04:27:01.776Z,40.97
2023-01-27T04:29:29.635Z,46.83
2023-01-27T04:31:57.796Z,35.17
2023-01-27T04:34:25.732Z,43.73
2023-01-27T04:36:52.929Z,42.90
2023-01-27T04:39:20.136Z,36.87
2023-01-27T04:41:49.024Z,37.57
2023-01-27T04:44:16.491Z,35.97
2023-01-27T04:46:43.655Z,42.10
2023-01-27T04:49:11.161Z,43.70
2023-01-27T04:51:38.429Z,42.70
2023-01-27T04:54:05.973Z,41.07
2023-01-27T04:56:36.840Z,39.63
2023-01-27T04:59:07.626Z,41.10
2023-01-27T05:01:34.878Z,37.53
2023-01-27T05:04:02.049Z,34.93
2023-01-27T05:06:29.187Z,32.30
2023-01-27T05:08:56.397Z,32.40
2023-01-27T05:11:23.606Z,34.87
2023-01-27T05:13:50.748Z,33.77
2023-01-27T05:16:18.900Z,31.93
2023-01-27T05:18:46.724Z,33.80
2023-01-27T05:21:15.050Z,34.73
2023-01-27T05:23:42.257Z,33.30
2023-01-27T05:26:10.629Z,33.20
2023-01-27T05:28:38.124Z,34.67
2023-01-27T05:31:06.130Z,31.17
2023-01-27T05:33:33.473Z,34.17
2023-01-27T05:36:01.243Z,33.40
2023-01-27T05:38:28.417Z,29.33
2023-01-27T05:40:56.853Z,28.37
2023-01-27T05:43:24.113Z,30.43
2023-01-27T05:45:51.230Z,30.60
2023-01-27T05:48:18.395Z,30.57
2023-01-27T05:50:45.515Z,30.47
2023-01-27T05:53:12.629Z,33.00
2023-01-27T05:55:39.793Z,31.77
2023-01-27T05:58:06.936Z,27.90
2023-01-27T06:00:34.048Z,29.73
2023-01-27T06:03:01.230Z,32.33
2023-01-27T06:05:28.449Z,28.37
2023-01-27T06:07:57.594Z,29.47
2023-01-27T06:10:24.862Z,29.50
2023-01-27T06:12:51.973Z,29.17
2023-01-27T06:15:19.123Z,26.87
2023-01-27T06:17:46.289Z,27.83
2023-01-27T06:20:13.588Z,27.93
2023-01-27T06:22:40.699Z,27.63
2023-01-27T06:25:08.182Z,27.90
2023-01-27T06:27:35.281Z,28.03
2023-01-27T06:30:02.404Z,27.37
2023-01-27T06:32:29.580Z,28.13
2023-01-27T06:34:56.696Z,28.27
2023-01-27T06:37:23.816Z,28.23
2023-01-27T06:39:50.982Z,30.40
2023-01-27T06:42:18.090Z,34.23
2023-01-27T06:44:45.205Z,33.13
2023-01-27T06:47:12.364Z,31.30
2023-01-27T06:49:39.791Z,30.87
2023-01-27T06:52:06.907Z,29.37
2023-01-27T06:54:34.790Z,28.23
2023-01-27T06:57:01.901Z,33.80
2023-01-27T06:59:29.027Z,30.00
2023-01-27T07:01:56.211Z,29.73
2023-01-27T07:04:23.368Z,30.33
2023-01-27T07:06:50.489Z,31.23
2023-01-27T07:09:17.677Z,30.47
2023-01-27T07:11:45.591Z,29.60
2023-01-27T07:14:12.715Z,31.77
2023-01-27T07:16:39.871Z,31.27
2023-01-27T07:19:07.440Z,30.03
2023-01-27T07:21:34.764Z,36.73
2023-01-27T07:24:01.919Z,31.50
2023-01-27T07:26:29.044Z,30.23
2023-01-27T07:28:56.497Z,33.23
2023-01-27T07:31:24.121Z,34.07
2023-01-27T07:33:51.291Z,34.20
2023-01-27T07:36:18.411Z,33.30
2023-01-27T07:38:45.547Z,37.37
2023-01-27T07:41:12.726Z,34.47
2023-01-27T07:43:39.867Z,32.87
2023-01-27T07:46:07.133Z,29.27
2023-01-27T07:48:34.266Z,29.70
2023-01-27T07:51:01.386Z,30.83
2023-01-27T07:53:28.542Z,31.47
2023-01-27T07:55:55.668Z,32.27
2023-01-27T07:58:22.780Z,27.10
2023-01-27T08:00:49.925Z,27.10
2023-01-27T08:03:23.912Z,31.13
2023-01-27T08:05:51.161Z,34.37
2023-01-27T08:08:19.122Z,27.30
2023-01-27T08:10:49.224Z,30.13
2023-01-27T08:13:16.510Z,29.43
2023-01-27T08:15:43.720Z,29.23
2023-01-27T08:18:10.898Z,27.10
2023-01-27T08:20:38.064Z,31.07
2023-01-27T08:23:05.201Z,28.83
2023-01-27T08:25:32.347Z,29.23
2023-01-27T08:27:59.499Z,28.03
2023-01-27T08:30:26.734Z,32.03
2023-01-27T08:32:53.916Z,28.33
2023-01-27T08:35:21.109Z,27.50
2023-01-27T08:37:48.837Z,28.73
2023-01-27T08:40:16.167Z,26.67
2023-01-27T08:42:43.342Z,25.40
2023-01-27T08:45:10.542Z,28.17
2023-01-27T08:47:37.725Z,28.47
2023-01-27T08:50:04.980Z,27.30
2023-01-27T08:52:32.087Z,27.70
2023-01-27T08:54:59.273Z,28.53
2023-01-27T08:57:26.522Z,25.33
2023-01-27T08:59:53.711Z,26.60
2023-01-27T09:02:22.405Z,31.70
2023-01-27T09:04:49.610Z,28.20
2023-01-27T09:07:16.847Z,28.40
2023-01-27T09:09:46.695Z,28.63
2023-01-27T09:12:13.846Z,27.70
2023-01-27T09:14:41.024Z,29.30
2023-01-27T09:17:08.152Z,29.33
2023-01-27T09:19:35.324Z,25.43
2023-01-27T09:22:02.909Z,26.77
2023-01-27T09:24:30.030Z,29.40
2023-01-27T09:26:58.401Z,27.83
2023-01-27T09:29:26.454Z,27.10
2023-01-27T09:31:53.774Z,25.30
2023-01-27T09:34:21.031Z,26.47
2023-01-27T09:36:52.049Z,25.97
2023-01-27T09:39:20.049Z,26.73
2023-01-27T09:41:56.388Z,28.53
2023-01-27T09:44:26.267Z,25.60
2023-01-27T09:46:59.607Z,25.47
2023-01-27T09:49:42.430Z,29.10
2023-01-27T09:52:09.658Z,27.23
2023-01-27T09:54:42.915Z,25.40
2023-01-27T09:57:23.177Z,21.03
2023-01-27T10:00:09.209Z,24.13
2023-01-27T10:02:40.455Z,20.20
2023-01-27T10:05:14.636Z,21.70
2023-01-27T10:07:44.836Z,20.17
2023-01-27T10:10:18.480Z,19.17
2023-01-27T10:13:24.338Z,17.47
2023-01-27T10:16:13.350Z,30.10
2023-01-27T10:18:49.554Z,22.20
2023-01-27T10:21:26.027Z,22.47
2023-01-27T10:23:58.952Z,20.63
2023-01-27T10:26:28.915Z,18.87
2023-01-27T10:29:02.082Z,20.53
2023-01-27T10:31:32.542Z,18.70
2023-01-27T10:34:02.647Z,19.10
2023-01-27T10:36:30.180Z,20.97
2023-01-27T10:39:12.627Z,26.53
2023-01-27T10:41:54.772Z,26.47
2023-01-27T10:44:24.840Z,25.07
2023-01-27T10:46:57.888Z,24.50
2023-01-27T10:49:32.047Z,27.50
2023-01-27T10:52:01.387Z,25.03
2023-01-27T10:54:33.227Z,29.97
2023-01-27T10:57:01.656Z,26.57
2023-01-27T10:59:35.115Z,26.83
2023-01-27T11:02:15.847Z,28.20
2023-01-27T11:04:49.958Z,29.93
2023-01-27T11:07:17.791Z,29.07
2023-01-27T11:09:48.146Z,24.73
2023-01-27T11:12:15.340Z,28.57
2023-01-27T11:14:45.861Z,24.17
2023-01-27T11:17:31.539Z,20.13
2023-01-27T11:20:07.656Z,20.40
2023-01-27T11:22:42.245Z,25.10
2023-01-27T11:25:15.504Z,23.37
2023-01-27T11:27:57.154Z,19.50
2023-01-27T11:30:29.050Z,18.70
2023-01-27T11:33:04.960Z,24.17
2023-01-27T11:35:32.085Z,31.20
2023-01-27T11:38:14.528Z,27.43
2023-01-27T11:40:42.391Z,28.37
2023-01-27T11:43:11.365Z,53.23
2023-01-27T11:45:39.112Z,60.97
2023-01-27T11:48:07.186Z,101.50
2023-01-27T11:50:34.764Z,29.40
2023-01-27T11:53:10.934Z,28.60
2023-01-27T11:55:39.263Z,26.03
2023-01-27T11:58:24.871Z,34.00
2023-01-27T12:00:56.025Z,32.00
2023-01-27T12:03:23.366Z,24.10
2023-01-27T12:05:55.622Z,24.70
2023-01-27T12:08:41.483Z,22.97
2023-01-27T12:11:18.601Z,24.20
2023-01-27T12:14:04.524Z,21.47
2023-01-27T12:16:44.472Z,31.93
2023-01-27T12:19:20.467Z,24.63
2023-01-27T12:21:48.568Z,20.10
2023-01-27T12:24:22.250Z,22.03
2023-01-27T12:26:49.467Z,19.70
2023-01-27T12:29:21.036Z,31.80
2023-01-27T12:31:48.840Z,47.27
2023-01-27T12:34:22.774Z,69.93
2023-01-27T12:36:49.875Z,25.27
2023-01-27T12:39:28.930Z,28.83
2023-01-27T12:41:56.119Z,22.80
2023-01-27T12:44:23.337Z,23.63
2023-01-27T12:47:18.950Z,24.87
2023-01-27T12:49:46.130Z,28.10
2023-01-27T12:52:20.066Z,42.33
2023-01-27T12:54:47.297Z,37.30
2023-01-27T12:57:17.388Z,45.03
2023-01-27T12:59:46.454Z,44.67
2023-01-27T13:02:20.184Z,45.47
2023-01-27T13:04:57.715Z,53.00
2023-01-27T13:07:25.903Z,44.40
2023-01-27T13:09:56.090Z,50.67
2023-01-27T13:12:24.625Z,34.83
2023-01-27T13:15:06.370Z,40.80
2023-01-27T13:17:42.674Z,36.73
2023-01-27T13:20:28.371Z,34.83
2023-01-27T13:22:57.719Z,37.70
2023-01-27T13:25:25.727Z,45.23
2023-01-27T13:27:54.564Z,32.80
2023-01-27T13:30:28.143Z,29.80
2023-01-27T13:32:56.758Z,41.03
2023-01-27T13:35:25.559Z,41.90
2023-01-27T13:38:02.099Z,39.87
2023-01-27T13:40:30.316Z,35.00
2023-01-27T13:43:03.677Z,37.50
2023-01-27T13:45:41.632Z,34.53
2023-01-27T13:48:28.590Z,31.77
2023-01-27T13:51:05.020Z,33.17
2023-01-27T13:53:32.172Z,36.33
2023-01-27T13:56:08.600Z,43.20
2023-01-27T13:58:50.872Z,35.47
2023-01-27T14:01:26.852Z,45.97
2023-01-27T14:03:56.828Z,42.67
2023-01-27T14:06:42.590Z,33.73
2023-01-27T14:09:15.770Z,26.07
2023-01-27T14:11:42.956Z,32.90
2023-01-27T14:14:15.335Z,29.47
2023-01-27T14:16:45.452Z,35.87
2023-01-27T14:19:21.598Z,44.30
2023-01-27T14:21:57.310Z,41.03
2023-01-27T14:24:33.574Z,46.03
2023-01-27T14:27:05.698Z,43.67
2023-01-27T14:29:32.867Z,36.83
2023-01-27T14:32:15.041Z,39.73
2023-01-27T14:35:00.039Z,38.67
2023-01-27T14:37:30.180Z,31.43
2023-01-27T14:40:03.075Z,33.87
2023-01-27T14:42:30.244Z,31.73
2023-01-27T14:45:16.209Z,32.33
2023-01-27T14:47:46.179Z,31.10
2023-01-27T14:50:13.323Z,28.13
2023-01-27T14:52:44.190Z,35.13
2023-01-27T14:55:17.402Z,30.50
2023-01-27T14:57:48.493Z,33.00
2023-01-27T15:00:33.040Z,32.47
2023-01-27T15:03:18.795Z,27.77
2023-01-27T15:06:06.844Z,27.20
2023-01-27T15:08:52.670Z,29.17
2023-01-27T15:11:22.921Z,32.20
2023-01-27T15:13:53.577Z,29.47
2023-01-27T15:16:39.010Z,23.37
2023-01-27T15:19:10.140Z,23.60
2023-01-27T15:21:46.524Z,25.37
2023-01-27T15:24:32.478Z,24.10
2023-01-27T15:26:59.617Z,26.70
2023-01-27T15:29:27.384Z,25.80
2023-01-27T15:32:13.399Z,27.70
2023-01-27T15:34:40.623Z,31.73
2023-01-27T15:37:10.825Z,26.83
2023-01-27T15:40:04.312Z,33.47
2023-01-27T15:42:51.376Z,34.33
2023-01-27T15:45:31.724Z,33.17
2023-01-27T15:48:02.175Z,30.80
2023-01-27T15:50:32.934Z,33.93
2023-01-27T15:53:01.623Z,41.70
2023-01-27T15:55:30.006Z,119.17
2023-01-27T15:58:17.398Z,67.57
2023-01-27T16:00:49.685Z,75.83
2023-01-27T16:03:24.640Z,66.83
2023-01-27T16:05:52.536Z,111.27
2023-01-27T16:08:19.950Z,55.20
2023-01-27T16:10:47.148Z,64.23
2023-01-27T16:13:29.877Z,49.00
2023-01-27T16:16:15.798Z,36.53
2023-01-27T16:19:02.139Z,25.77
2023-01-27T16:21:44.729Z,31.23
2023-01-27T16:24:14.330Z,52.07
2023-01-27T16:26:43.141Z,30.83
2023-01-27T16:29:13.385Z,44.33
2023-01-27T16:31:41.941Z,28.47
2023-01-27T16:34:15.855Z,26.57
2023-01-27T16:36:42.985Z,47.40
2023-01-27T16:39:21.128Z,46.50
2023-01-27T16:41:52.206Z,28.43
2023-01-27T16:44:26.383Z,28.63
2023-01-27T16:46:58.339Z,38.17
2023-01-27T16:49:32.994Z,32.53
2023-01-27T16:52:03.984Z,27.33
2023-01-27T16:54:38.789Z,26.20
2023-01-27T16:57:06.283Z,23.10
2023-01-27T16:59:37.064Z,33.73
2023-01-27T17:02:05.575Z,27.23
2023-01-27T17:04:32.955Z,27.03
2023-01-27T17:07:04.437Z,34.60
2023-01-27T17:09:32.192Z,26.60
2023-01-27T17:11:59.602Z,23.43
2023-01-27T17:14:31.754Z,21.90
2023-01-27T17:17:02.935Z,25.23
2023-01-27T17:19:33.480Z,22.97
2023-01-27T17:22:04.653Z,22.83
2023-01-27T17:24:31.821Z,24.53
2023-01-27T17:27:01.772Z,19.60
2023-01-27T17:29:33.317Z,21.40
2023-01-27T17:32:00.547Z,31.70
2023-01-27T17:34:27.766Z,19.50
2023-01-27T17:37:14.258Z,23.63
2023-01-27T17:39:41.415Z,19.33
2023-01-27T17:42:08.549Z,21.83
2023-01-27T17:44:36.601Z,18.27
2023-01-27T17:47:03.737Z,17.10
2023-01-27T17:49:31.544Z,21.73
2023-01-27T17:51:59.468Z,25.00
2023-01-27T17:54:27.652Z,20.97
2023-01-27T17:57:00.120Z,20.00
2023-01-27T17:59:27.257Z,17.37
2023-01-27T18:01:55.071Z,20.13
2023-01-27T18:04:22.890Z,16.33
2023-01-27T18:06:53.013Z,18.30
2023-01-27T18:09:21.253Z,19.03
2023-01-27T18:12:12.208Z,15.03
2023-01-27T18:14:39.333Z,16.53
2023-01-27T18:17:06.968Z,16.03
2023-01-27T18:19:34.216Z,34.00
2023-01-27T18:22:17.175Z,20.57
2023-01-27T18:25:00.811Z,16.80
2023-01-27T18:27:32.210Z,15.27
2023-01-27T18:30:02.107Z,15.37
2023-01-27T18:32:30.505Z,14.70
2023-01-27T18:34:58.169Z,14.47
2023-01-27T18:37:36.152Z,14.17
2023-01-27T18:40:04.458Z,13.57
2023-01-27T18:42:31.657Z,15.07
2023-01-27T18:44:58.880Z,16.13
2023-01-27T18:47:27.364Z,12.60
2023-01-27T18:49:58.647Z,16.90
2023-01-27T18:52:25.842Z,14.80
2023-01-27T18:54:54.139Z,15.67
2023-01-27T18:57:21.286Z,13.63
2023-01-27T18:59:48.448Z,14.73
2023-01-27T19:02:15.883Z,12.07
2023-01-27T19:04:43.379Z,12.20
2023-01-27T19:07:17.148Z,13.07
2023-01-27T19:09:44.646Z,13.97
2023-01-27T19:12:11.816Z,13.97
2023-01-27T19:14:41.437Z,13.37
2023-01-27T19:17:27.404Z,13.63
2023-01-27T19:19:55.015Z,12.87
2023-01-27T19:22:22.120Z,14.10
2023-01-27T19:24:50.478Z,13.73
2023-01-27T19:27:17.946Z,15.03
2023-01-27T19:29:45.095Z,16.67
2023-01-27T19:32:15.418Z,13.13
2023-01-27T19:34:42.608Z,12.83
2023-01-27T19:37:17.003Z,13.63
2023-01-27T19:39:45.090Z,24.47
2023-01-27T19:42:12.557Z,23.27
2023-01-27T19:44:39.707Z,22.00
2023-01-27T19:47:10.667Z,40.20
2023-01-27T19:49:37.802Z,30.97
2023-01-27T19:52:04.936Z,19.37
2023-01-27T19:54:32.104Z,25.33
2023-01-27T19:56:59.241Z,18.40
2023-01-27T19:59:26.450Z,25.77
2023-01-27T20:01:53.671Z,22.10
2023-01-27T20:04:20.843Z,53.70
2023-01-27T20:06:48.002Z,25.43
2023-01-27T20:09:15.262Z,23.33
2023-01-27T20:11:42.965Z,32.63
2023-01-27T20:14:18.771Z,41.03
2023-01-27T20:16:46.001Z,34.90
2023-01-27T20:19:15.018Z,33.97
2023-01-27T20:21:42.734Z,44.33
2023-01-27T20:24:11.597Z,39.93
2023-01-27T20:26:38.743Z,26.00
2023-01-27T20:29:05.942Z,19.87
2023-01-27T20:31:33.090Z,47.07
2023-01-27T20:34:00.388Z,25.73
2023-01-27T20:36:27.637Z,41.57
2023-01-27T20:38:54.824Z,30.37
2023-01-27T20:41:23.164Z,54.93
2023-01-27T20:43:50.552Z,23.83
2023-01-27T20:46:18.227Z,20.50
2023-01-27T20:48:45.381Z,17.27
2023-01-27T20:51:13.491Z,43.67
2023-01-27T20:53:45.073Z,19.40
2023-01-27T20:56:12.699Z,15.77
2023-01-27T20:58:39.847Z,18.40
2023-01-27T21:01:10.851Z,20.27
2023-01-27T21:03:38.057Z,29.60
2023-01-27T21:06:05.743Z,21.93
2023-01-27T21:08:32.876Z,24.50
2023-01-27T21:11:01.012Z,25.57
2023-01-27T21:13:28.521Z,36.77
2023-01-27T21:15:56.703Z,25.73
2023-01-27T21:18:23.988Z,44.80
2023-01-27T21:20:51.516Z,38.97
2023-01-27T21:23:21.043Z,32.53
2023-01-27T21:25:48.144Z,26.10
2023-01-27T21:28:15.775Z,17.50
2023-01-27T21:30:43.350Z,27.40
2023-01-27T21:33:10.658Z,18.70
2023-01-27T21:35:37.893Z,20.03
2023-01-27T21:38:05.131Z,23.27
2023-01-27T21:40:33.470Z,23.67
2023-01-27T21:43:19.386Z,26.63
2023-01-27T21:45:46.527Z,20.10
2023-01-27T21:48:14.964Z,21.73
2023-01-27T21:50:42.127Z,22.07
2023-01-27T21:53:10.089Z,23.87
2023-01-27T21:55:37.254Z,22.10
2023-01-27T21:58:04.426Z,21.63
2023-01-27T22:00:31.714Z,20.67
2023-01-27T22:02:59.624Z,20.00
2023-01-27T22:05:27.138Z,22.00
2023-01-27T22:07:54.653Z,19.57
2023-01-27T22:10:22.693Z,18.67
2023-01-27T22:12:51.201Z,20.27
2023-01-27T22:15:19.651Z,18.33
2023-01-27T22:17:46.888Z,18.63
2023-01-27T22:20:17.413Z,15.03
2023-01-27T22:22:44.789Z,16.03
2023-01-27T22:25:12.967Z,15.30
2023-01-27T22:27:43.148Z,13.70
2023-01-27T22:30:14.400Z,16.40
2023-01-27T22:32:41.597Z,16.50
2023-01-27T22:35:08.885Z,15.83
2023-01-27T22:37:36.161Z,16.87
2023-01-27T22:40:04.575Z,17.73
2023-01-27T22:42:31.707Z,17.23
2023-01-27T22:44:58.817Z,18.70
2023-01-27T22:47:25.922Z,17.43
2023-01-27T22:49:53.100Z,27.37
2023-01-27T22:52:20.212Z,19.70
2023-01-27T22:54:47.377Z,15.87
2023-01-27T22:57:14.544Z,14.60
2023-01-27T22:59:41.661Z,16.17
2023-01-27T23:02:08.804Z,15.43
2023-01-27T23:04:36.126Z,18.07
2023-01-27T23:07:03.272Z,16.23
2023-01-27T23:09:30.401Z,17.00
2023-01-27T23:11:57.588Z,18.43
2023-01-27T23:14:24.708Z,18.50
2023-01-27T23:16:52.972Z,16.53
2023-01-27T23:19:21.916Z,21.37
2023-01-27T23:21:49.048Z,17.43
2023-01-27T23:24:16.234Z,15.77
2023-01-27T23:26:43.538Z,17.07
2023-01-27T23:29:23.083Z,19.87
2023-01-27T23:31:51.803Z,16.53
2023-01-27T23:34:19.011Z,17.67
2023-01-27T23:36:46.190Z,15.87
2023-01-27T23:39:14.438Z,17.97
2023-01-27T23:41:41.600Z,16.43
2023-01-27T23:44:09.627Z,19.63
2023-01-27T23:46:36.804Z,18.80
2023-01-27T23:49:04.037Z,16.97
2023-01-27T23:51:31.315Z,17.37
2023-01-27T23:53:58.526Z,19.13
2023-01-27T23:56:25.634Z,17.33
2023-01-27T23:58:52.817Z,16.57
